createdAt,value
2017-12-08T00:00:19.350Z,34.87
2017-12-08T00:02:47.868Z,36.57
2017-12-08T00:05:15.601Z,33.67
2017-12-08T00:07:44.087Z,35.70
2017-12-08T00:10:11.875Z,35.73
2017-12-08T00:12:39.604Z,36.10
2017-12-08T00:15:07.383Z,38.43
2017-12-08T00:17:35.160Z,36.77
2017-12-08T00:20:02.984Z,34.83
2017-12-08T00:22:30.786Z,36.60
2017-12-08T00:24:59.357Z,34.67
2017-12-08T00:27:27.140Z,34.47
2017-12-08T00:29:54.881Z,35.67
2017-12-08T00:32:23.315Z,36.90
2017-12-08T00:34:51.117Z,36.97
2017-12-08T00:37:18.946Z,36.73
2017-12-08T00:39:46.758Z,34.60
2017-12-08T00:42:14.499Z,38.90
2017-12-08T00:44:42.241Z,37.87
2017-12-08T00:47:10.033Z,39.00
2017-12-08T00:49:37.867Z,42.47
2017-12-08T00:52:05.651Z,39.73
2017-12-08T00:54:33.391Z,40.00
2017-12-08T00:57:01.121Z,39.27
2017-12-08T00:59:28.900Z,40.17
2017-12-08T01:01:56.642Z,39.40
2017-12-08T01:04:24.373Z,38.90
2017-12-08T01:06:52.102Z,42.10
2017-12-08T01:09:19.878Z,42.77
2017-12-08T01:11:47.664Z,43.80
2017-12-08T01:14:16.152Z,41.60
2017-12-08T01:16:43.929Z,46.70
2017-12-08T01:19:11.751Z,43.03
2017-12-08T01:21:39.495Z,44.97
2017-12-08T01:24:07.280Z,43.17
2017-12-08T01:26:35.073Z,41.10
2017-12-08T01:29:02.858Z,36.40
2017-12-08T01:31:30.611Z,38.97
2017-12-08T01:33:58.382Z,34.00
2017-12-08T01:36:26.186Z,37.57
2017-12-08T01:38:53.912Z,39.03
2017-12-08T01:41:21.680Z,38.50
2017-12-08T01:43:49.524Z,36.17
2017-12-08T01:46:17.332Z,37.77
2017-12-08T01:48:45.080Z,37.97
2017-12-08T01:51:13.607Z,37.27
2017-12-08T01:53:41.400Z,39.83
2017-12-08T01:56:09.149Z,39.77
2017-12-08T01:58:37.085Z,38.40
2017-12-08T02:01:04.824Z,38.80
2017-12-08T02:03:33.319Z,40.10
2017-12-08T02:06:01.065Z,38.20
2017-12-08T02:08:28.863Z,40.13
2017-12-08T02:10:56.762Z,41.00
2017-12-08T02:13:24.507Z,38.03
2017-12-08T02:15:52.299Z,41.17
2017-12-08T02:18:20.030Z,37.80
2017-12-08T02:20:47.851Z,44.03
2017-12-08T02:23:15.634Z,42.57
2017-12-08T02:25:43.427Z,44.30
2017-12-08T02:28:12.021Z,43.60
2017-12-08T02:30:39.810Z,39.60
2017-12-08T02:33:07.615Z,40.13
2017-12-08T02:35:35.413Z,42.13
2017-12-08T02:38:03.899Z,38.53
2017-12-08T02:40:31.729Z,38.23
2017-12-08T02:42:59.483Z,44.83
2017-12-08T02:45:27.244Z,41.17
2017-12-08T02:47:55.025Z,41.40
2017-12-08T02:50:22.808Z,41.57
2017-12-08T02:52:50.606Z,41.50
2017-12-08T02:55:18.401Z,40.77
2017-12-08T02:57:46.133Z,38.30
2017-12-08T03:00:13.959Z,37.77
2017-12-08T03:02:41.755Z,38.50
2017-12-08T03:05:10.307Z,41.00
2017-12-08T03:07:38.090Z,39.63
2017-12-08T03:10:05.918Z,42.20
2017-12-08T03:12:33.678Z,39.93
2017-12-08T03:15:01.416Z,42.47
2017-12-08T03:17:29.238Z,41.53
2017-12-08T03:19:56.967Z,43.00
2017-12-08T03:22:24.743Z,39.90
2017-12-08T03:24:52.596Z,40.13
2017-12-08T03:27:20.368Z,43.30
2017-12-08T03:29:48.159Z,41.63
2017-12-08T03:32:15.943Z,42.33
2017-12-08T03:34:43.759Z,41.47
2017-12-08T03:37:11.531Z,42.87
2017-12-08T03:39:39.319Z,43.57
2017-12-08T03:42:07.152Z,45.07
2017-12-08T03:44:34.954Z,45.03
2017-12-08T03:47:03.669Z,43.47
2017-12-08T03:49:31.467Z,44.50
2017-12-08T03:51:59.965Z,42.70
2017-12-08T03:54:27.693Z,46.70
2017-12-08T03:56:55.498Z,45.83
2017-12-08T03:59:23.264Z,45.03
2017-12-08T04:01:51.073Z,44.60
2017-12-08T04:04:18.864Z,47.80
2017-12-08T04:06:46.669Z,49.67
2017-12-08T04:09:14.454Z,54.00
2017-12-08T04:11:42.181Z,51.90
2017-12-08T04:14:09.974Z,53.20
2017-12-08T04:16:37.786Z,56.70
2017-12-08T04:19:05.507Z,53.30
2017-12-08T04:21:33.294Z,58.03
2017-12-08T04:24:01.075Z,52.50
2017-12-08T04:26:28.864Z,54.40
2017-12-08T04:28:56.651Z,58.40
2017-12-08T04:31:24.578Z,55.97
2017-12-08T04:33:52.331Z,56.67
2017-12-08T04:36:20.099Z,55.17
2017-12-08T04:38:47.886Z,56.80
2017-12-08T04:41:15.711Z,56.00
2017-12-08T04:43:43.530Z,56.77
2017-12-08T04:46:11.318Z,57.50
2017-12-08T04:48:39.130Z,58.13
2017-12-08T04:51:06.895Z,58.43
2017-12-08T04:53:34.706Z,58.50
2017-12-08T04:56:02.424Z,55.20
2017-12-08T04:58:30.177Z,57.63
2017-12-08T05:00:58.825Z,55.80
2017-12-08T05:03:26.652Z,57.30
2017-12-08T05:05:54.462Z,55.43
2017-12-08T05:08:22.315Z,58.83
2017-12-08T05:10:50.298Z,60.43
2017-12-08T05:13:18.045Z,61.77
2017-12-08T05:15:45.784Z,55.30
2017-12-08T05:18:13.545Z,56.00
2017-12-08T05:20:41.296Z,58.13
2017-12-08T05:23:09.804Z,58.30
2017-12-08T05:25:37.571Z,60.07
2017-12-08T05:28:05.334Z,57.80
2017-12-08T05:30:33.118Z,60.70
2017-12-08T05:33:00.900Z,58.00
2017-12-08T05:35:28.708Z,58.50
2017-12-08T05:37:56.595Z,58.30
2017-12-08T05:40:25.090Z,63.33
2017-12-08T05:42:52.821Z,58.10
2017-12-08T05:45:20.565Z,58.53
2017-12-08T05:47:48.370Z,61.80
2017-12-08T05:50:16.095Z,57.97
2017-12-08T05:52:43.879Z,58.90
2017-12-08T05:55:11.612Z,56.87
2017-12-08T05:57:39.417Z,55.10
2017-12-08T06:00:07.224Z,48.50
2017-12-08T06:02:34.962Z,48.50
2017-12-08T06:05:02.758Z,45.37
2017-12-08T06:07:30.558Z,44.10
2017-12-08T06:09:58.377Z,43.20
2017-12-08T06:12:26.170Z,42.90
2017-12-08T06:14:54.003Z,46.77
2017-12-08T06:17:22.584Z,44.43
2017-12-08T06:19:50.303Z,44.50
2017-12-08T06:22:18.036Z,46.97
2017-12-08T06:24:45.827Z,47.70
2017-12-08T06:27:13.601Z,49.57
2017-12-08T06:29:41.319Z,49.90
2017-12-08T06:32:09.117Z,51.63
2017-12-08T06:34:36.924Z,51.60
2017-12-08T06:37:04.652Z,51.30
2017-12-08T06:39:32.442Z,48.00
2017-12-08T06:42:00.252Z,47.30
2017-12-08T06:44:27.967Z,48.43
2017-12-08T06:46:55.745Z,48.90
2017-12-08T06:49:23.590Z,50.73
2017-12-08T06:51:51.329Z,49.60
2017-12-08T06:54:19.103Z,52.50
2017-12-08T06:56:46.860Z,51.80
2017-12-08T06:59:14.576Z,48.30
2017-12-08T07:01:42.347Z,49.93
2017-12-08T07:04:10.076Z,52.33
2017-12-08T07:06:37.873Z,48.70
2017-12-08T07:09:05.852Z,49.47
2017-12-08T07:11:37.463Z,49.23
2017-12-08T07:14:05.324Z,49.70
2017-12-08T07:16:33.880Z,51.60
2017-12-08T07:19:01.641Z,51.63
2017-12-08T07:21:29.424Z,48.57
2017-12-08T07:23:57.263Z,48.53
2017-12-08T07:26:25.547Z,48.93
2017-12-08T07:28:53.358Z,48.60
2017-12-08T07:31:21.199Z,49.40
2017-12-08T07:33:48.986Z,51.13
2017-12-08T07:36:17.493Z,47.40
2017-12-08T07:38:45.538Z,49.97
2017-12-08T07:41:13.443Z,49.63
2017-12-08T07:43:41.182Z,48.27
2017-12-08T07:46:09.031Z,50.60
2017-12-08T07:48:36.827Z,46.57
2017-12-08T07:51:04.619Z,50.40
2017-12-08T07:53:32.433Z,49.87
2017-12-08T07:56:00.204Z,48.00
2017-12-08T07:58:27.997Z,47.07
2017-12-08T08:00:55.715Z,50.83
2017-12-08T08:03:23.534Z,51.50
2017-12-08T08:05:51.312Z,47.03
2017-12-08T08:08:19.221Z,55.57
2017-12-08T08:10:46.959Z,56.30
2017-12-08T08:13:14.858Z,51.10
2017-12-08T08:15:42.710Z,52.23
2017-12-08T08:18:11.637Z,54.37
2017-12-08T08:20:40.755Z,65.30
2017-12-08T08:23:08.830Z,54.33
2017-12-08T08:28:23.335Z,54.70
2017-12-08T08:31:00.504Z,58.53
2017-12-08T08:33:28.476Z,54.77
2017-12-08T08:35:56.342Z,52.83
2017-12-08T08:38:24.123Z,60.20
2017-12-08T08:40:52.332Z,58.33
2017-12-08T08:43:20.111Z,67.43
2017-12-08T08:45:47.864Z,63.83
2017-12-08T08:48:15.843Z,60.97
2017-12-08T08:50:43.629Z,58.60
2017-12-08T08:53:11.542Z,59.10
2017-12-08T08:55:39.356Z,55.83
2017-12-08T08:58:07.773Z,51.43
2017-12-08T09:00:35.592Z,55.33
2017-12-08T09:03:04.249Z,53.90
2017-12-08T09:05:32.012Z,58.80
2017-12-08T09:07:59.800Z,54.80
2017-12-08T09:10:27.607Z,52.57
2017-12-08T09:12:55.441Z,56.13
2017-12-08T09:15:23.325Z,59.50
2017-12-08T09:17:51.139Z,57.60
2017-12-08T09:20:18.881Z,59.53
2017-12-08T09:22:46.627Z,56.53
2017-12-08T09:25:14.380Z,57.83
2017-12-08T09:27:42.325Z,58.80
2017-12-08T09:30:10.126Z,57.17
2017-12-08T09:32:37.943Z,56.50
2017-12-08T09:35:06.012Z,58.10
2017-12-08T09:37:33.898Z,62.07
2017-12-08T09:40:01.822Z,64.83
2017-12-08T09:42:29.577Z,60.60
2017-12-08T09:44:57.371Z,65.60
2017-12-08T09:47:25.154Z,66.73
2017-12-08T09:49:53.670Z,60.70
2017-12-08T09:52:21.450Z,68.63
2017-12-08T09:54:49.219Z,69.43
2017-12-08T09:57:17.260Z,70.43
2017-12-08T09:59:45.004Z,69.37
2017-12-08T10:02:12.803Z,69.43
2017-12-08T10:04:41.938Z,68.97
2017-12-08T10:07:09.771Z,71.87
2017-12-08T10:09:37.601Z,76.63
2017-12-08T10:12:06.323Z,72.93
2017-12-08T10:14:34.112Z,71.77
2017-12-08T10:17:01.893Z,74.57
2017-12-08T10:19:29.731Z,69.50
2017-12-08T10:21:57.596Z,74.70
2017-12-08T10:24:25.311Z,74.00
2017-12-08T10:26:53.135Z,73.10
2017-12-08T10:29:20.906Z,72.17
2017-12-08T10:31:48.661Z,75.83
2017-12-08T10:34:16.527Z,68.03
2017-12-08T10:36:44.276Z,75.33
2017-12-08T10:39:12.043Z,73.17
2017-12-08T10:41:39.804Z,70.73
2017-12-08T10:44:07.610Z,70.27
2017-12-08T10:46:35.393Z,75.93
2017-12-08T10:49:03.187Z,80.43
2017-12-08T10:51:30.985Z,80.17
2017-12-08T10:53:58.819Z,72.20
2017-12-08T10:56:26.654Z,73.60
2017-12-08T10:58:54.388Z,74.80
2017-12-08T11:01:22.184Z,75.27
2017-12-08T11:03:49.911Z,77.70
2017-12-08T11:06:18.440Z,77.83
2017-12-08T11:08:46.197Z,78.90
2017-12-08T11:11:14.115Z,75.27
2017-12-08T11:13:41.899Z,72.30
2017-12-08T11:16:09.794Z,75.67
2017-12-08T11:18:37.979Z,79.50
2017-12-08T11:21:06.768Z,81.73
2017-12-08T11:23:34.576Z,73.07
2017-12-08T11:26:02.389Z,69.93
2017-12-08T11:28:30.226Z,74.70
2017-12-08T11:30:58.769Z,82.13
2017-12-08T11:33:26.496Z,77.60
2017-12-08T11:35:54.307Z,84.00
2017-12-08T11:38:22.056Z,74.40
2017-12-08T11:40:49.870Z,75.07
2017-12-08T11:43:17.708Z,75.07
2017-12-08T11:45:45.518Z,81.40
2017-12-08T11:48:14.054Z,83.07
2017-12-08T11:50:41.842Z,80.00
2017-12-08T11:53:09.600Z,81.53
2017-12-08T11:55:37.438Z,76.70
2017-12-08T11:58:05.168Z,78.90
2017-12-08T12:00:32.973Z,82.47
2017-12-08T12:03:00.766Z,75.97
2017-12-08T12:05:28.661Z,82.37
2017-12-08T12:07:56.403Z,78.27
2017-12-08T12:10:24.183Z,80.87
2017-12-08T12:12:51.920Z,82.37
2017-12-08T12:15:19.767Z,80.43
2017-12-08T12:17:47.565Z,77.83
2017-12-08T12:20:15.303Z,75.60
2017-12-08T12:22:43.049Z,82.73
2017-12-08T12:25:10.775Z,81.10
2017-12-08T12:27:38.665Z,82.77
2017-12-08T12:30:06.388Z,81.77
2017-12-08T12:32:34.186Z,79.20
2017-12-08T12:35:01.926Z,75.07
2017-12-08T12:37:29.679Z,77.93
2017-12-08T12:39:57.407Z,75.53
2017-12-08T12:42:32.987Z,82.23
2017-12-08T12:45:00.877Z,74.60
2017-12-08T12:47:28.610Z,72.53
2017-12-08T12:49:56.446Z,79.37
2017-12-08T12:52:24.234Z,80.47
2017-12-08T12:54:52.043Z,76.97
2017-12-08T12:57:19.806Z,76.33
2017-12-08T12:59:47.531Z,80.33
2017-12-08T13:02:15.297Z,72.47
2017-12-08T13:04:43.045Z,81.37
2017-12-08T13:07:10.825Z,78.90
2017-12-08T13:09:38.549Z,81.63
2017-12-08T13:12:06.499Z,74.33
2017-12-08T13:14:34.224Z,76.77
2017-12-08T13:17:02.012Z,79.33
2017-12-08T13:19:29.801Z,81.77
2017-12-08T13:21:57.604Z,75.77
2017-12-08T13:24:25.400Z,77.40
2017-12-08T13:26:53.959Z,81.03
2017-12-08T13:29:21.770Z,74.00
2017-12-08T13:31:49.497Z,82.50
2017-12-08T13:34:17.280Z,71.60
2017-12-08T13:36:46.299Z,76.80
2017-12-08T13:39:14.172Z,84.23
2017-12-08T13:41:41.951Z,74.13
2017-12-08T13:44:09.677Z,74.20
2017-12-08T13:46:37.409Z,78.50
2017-12-08T13:49:05.182Z,82.10
2017-12-08T13:51:32.907Z,84.83
2017-12-08T13:54:12.429Z,84.13
2017-12-08T13:56:52.747Z,87.50
2017-12-08T13:59:20.545Z,85.83
2017-12-08T14:01:48.303Z,84.40
2017-12-08T14:04:16.067Z,77.83
2017-12-08T14:06:43.866Z,73.97
2017-12-08T14:09:12.396Z,89.60
2017-12-08T14:11:40.198Z,81.40
2017-12-08T14:14:07.987Z,76.57
2017-12-08T14:16:35.776Z,74.30
2017-12-08T14:19:03.620Z,81.30
2017-12-08T14:21:32.135Z,82.97
2017-12-08T14:23:59.912Z,77.13
2017-12-08T14:26:28.418Z,82.97
2017-12-08T14:28:56.210Z,81.03
2017-12-08T14:31:24.780Z,81.90
2017-12-08T14:33:52.607Z,81.37
2017-12-08T14:36:20.457Z,80.83
2017-12-08T14:38:48.187Z,79.97
2017-12-08T14:44:37.747Z,76.13
2017-12-08T14:47:05.642Z,82.40
2017-12-08T14:49:33.608Z,78.70
2017-12-08T14:52:01.392Z,82.00
2017-12-08T14:54:29.183Z,77.00
2017-12-08T14:56:57.717Z,80.40
2017-12-08T14:59:25.631Z,78.17
2017-12-08T15:01:54.297Z,80.87
2017-12-08T15:04:22.153Z,80.10
2017-12-08T15:06:50.056Z,81.73
2017-12-08T15:09:17.899Z,80.67
2017-12-08T15:11:45.827Z,86.07
2017-12-08T15:14:13.843Z,86.37
2017-12-08T15:16:42.555Z,85.67
2017-12-08T15:19:10.448Z,73.90
2017-12-08T15:21:38.517Z,87.77
2017-12-08T15:31:06.107Z,74.77
2017-12-08T15:33:33.948Z,80.77
2017-12-08T15:36:02.690Z,84.70
2017-12-08T15:38:31.537Z,80.00
2017-12-08T15:40:59.527Z,81.90
2017-12-08T15:43:27.373Z,84.03
2017-12-08T15:45:55.223Z,78.10
2017-12-08T15:48:23.909Z,75.97
2017-12-08T15:50:54.848Z,83.63
2017-12-08T15:53:24.312Z,84.40
2017-12-08T15:55:52.320Z,82.37
2017-12-08T16:08:44.170Z,80.60
2017-12-08T16:11:17.151Z,82.23
2017-12-08T16:13:44.956Z,75.83
2017-12-08T16:16:12.778Z,75.27
2017-12-08T16:18:40.751Z,77.30
2017-12-08T16:21:09.673Z,80.67
2017-12-08T16:23:38.346Z,82.43
2017-12-08T16:26:06.108Z,77.90
2017-12-08T16:28:33.937Z,82.00
2017-12-08T16:31:01.711Z,81.87
2017-12-08T16:33:42.409Z,86.80
2017-12-08T16:36:11.017Z,79.70
2017-12-08T16:38:38.914Z,76.67
2017-12-08T16:41:06.741Z,82.60
2017-12-08T16:43:34.700Z,76.90
2017-12-08T16:46:04.148Z,78.30
2017-12-08T16:48:32.005Z,76.60
2017-12-08T16:50:59.869Z,74.13
2017-12-08T16:53:27.766Z,75.13
2017-12-08T16:55:59.368Z,75.57
2017-12-08T16:58:27.284Z,75.53
2017-12-08T17:00:55.379Z,67.77
2017-12-08T17:03:38.483Z,75.70
2017-12-08T17:06:06.516Z,75.37
2017-12-08T18:17:57.368Z,80.60
2017-12-08T18:23:55.822Z,73.00
2017-12-08T18:26:27.453Z,75.70
2017-12-08T18:28:57.404Z,79.10
2017-12-08T18:31:25.307Z,76.83
2017-12-08T21:01:36.045Z,83.97
2017-12-08T21:11:08.697Z,80.87
2017-12-08T21:13:37.199Z,82.10
2017-12-08T22:01:46.121Z,82.47
2017-12-08T22:04:41.979Z,85.73
2017-12-08T22:07:14.418Z,84.03
2017-12-08T22:09:45.969Z,82.60
2017-12-08T22:12:14.471Z,80.47
2017-12-08T22:14:42.734Z,80.70
2017-12-08T22:17:14.140Z,81.87
2017-12-08T22:29:51.738Z,72.00
2017-12-08T22:32:20.369Z,73.20
2017-12-08T22:34:48.250Z,71.07
2017-12-08T22:37:16.196Z,71.20
2017-12-08T22:39:44.008Z,71.33
2017-12-08T22:42:12.165Z,68.30
2017-12-08T22:44:40.274Z,73.77
2017-12-08T22:47:08.171Z,67.00
2017-12-08T22:49:36.110Z,68.50
2017-12-08T22:52:43.928Z,67.80
